createdAt,value
2023-03-12T00:00:55.254Z,12.80
2023-03-12T00:01:55.234Z,12.80
2023-03-12T00:02:55.240Z,12.90
2023-03-12T00:03:55.269Z,12.60
2023-03-12T00:04:55.237Z,12.90
2023-03-12T00:05:55.229Z,12.90
2023-03-12T00:06:55.236Z,12.60
2023-03-12T00:07:55.229Z,12.90
2023-03-12T00:08:56.308Z,12.60
2023-03-12T00:09:55.254Z,12.70
2023-03-12T00:10:55.234Z,12.90
2023-03-12T00:11:55.231Z,12.60
2023-03-12T00:12:55.237Z,12.90
2023-03-12T00:13:55.224Z,12.70
2023-03-12T00:14:55.237Z,12.70
2023-03-12T00:15:55.247Z,12.70
2023-03-12T00:16:55.236Z,12.80
2023-03-12T00:17:55.240Z,12.70
2023-03-12T00:18:55.231Z,12.80
2023-03-12T00:19:55.228Z,12.70
2023-03-12T00:20:55.238Z,12.80
2023-03-12T00:21:55.223Z,12.70
2023-03-12T00:22:55.236Z,12.70
2023-03-12T00:23:55.222Z,12.99
2023-03-12T00:24:55.228Z,12.80
2023-03-12T00:25:55.249Z,12.80
2023-03-12T00:26:55.226Z,12.80
2023-03-12T00:27:55.220Z,12.99
2023-03-12T00:28:55.225Z,12.80
2023-03-12T00:29:55.231Z,12.90
2023-03-12T00:30:57.174Z,12.90
2023-03-12T00:31:55.216Z,12.90
2023-03-12T00:32:55.248Z,12.90
2023-03-12T00:33:55.215Z,12.90
2023-03-12T00:34:55.222Z,12.90
2023-03-12T00:35:55.273Z,12.90
2023-03-12T00:36:55.223Z,12.90
2023-03-12T00:37:55.217Z,13.09
2023-03-12T00:38:55.236Z,12.99
2023-03-12T00:39:55.226Z,12.99
2023-03-12T00:40:55.223Z,12.99
2023-03-12T00:41:55.243Z,12.99
2023-03-12T00:42:55.218Z,12.99
2023-03-12T00:43:55.210Z,13.09
2023-03-12T00:44:55.212Z,13.19
2023-03-12T00:45:55.205Z,13.09
2023-03-12T00:46:55.266Z,13.09
2023-03-12T00:47:55.204Z,13.19
2023-03-12T00:48:55.210Z,13.09
2023-03-12T00:49:55.209Z,13.19
2023-03-12T00:50:55.212Z,13.19
2023-03-12T00:51:55.202Z,13.19
2023-03-12T00:52:55.210Z,12.99
2023-03-12T00:53:55.201Z,13.19
2023-03-12T00:54:55.210Z,12.80
2023-03-12T00:55:55.223Z,13.19
2023-03-12T00:56:55.211Z,12.99
2023-03-12T00:57:55.237Z,13.19
2023-03-12T00:58:55.231Z,12.99
2023-03-12T00:59:55.201Z,13.19
2023-03-12T01:00:55.279Z,12.99
2023-03-12T01:01:55.202Z,13.29
2023-03-12T01:02:55.206Z,13.09
2023-03-12T01:03:55.293Z,13.09
2023-03-12T01:04:55.202Z,13.19
2023-03-12T01:05:55.230Z,13.09
2023-03-12T01:06:55.203Z,13.09
2023-03-12T01:07:55.196Z,13.19
2023-03-12T01:08:55.207Z,13.19
2023-03-12T01:09:55.198Z,13.09
2023-03-12T01:10:55.212Z,13.19
2023-03-12T01:11:55.193Z,13.19
2023-03-12T01:12:55.202Z,13.09
2023-03-12T01:13:55.223Z,13.19
2023-03-12T01:14:55.200Z,13.19
2023-03-12T01:15:55.341Z,13.19
2023-03-12T01:16:55.199Z,13.09
2023-03-12T01:17:55.193Z,13.19
2023-03-12T01:18:55.208Z,13.19
2023-03-12T01:19:55.190Z,12.99
2023-03-12T01:20:55.196Z,13.09
2023-03-12T01:21:55.209Z,13.09
2023-03-12T01:22:55.199Z,13.09
2023-03-12T01:23:55.195Z,12.99
2023-03-12T01:24:55.198Z,13.09
2023-03-12T01:25:55.189Z,12.99
2023-03-12T01:26:55.196Z,12.99
2023-03-12T01:27:55.196Z,13.09
2023-03-12T01:28:55.203Z,13.19
2023-03-12T01:29:55.216Z,13.19
2023-03-12T01:30:55.203Z,13.19
2023-03-12T01:31:55.223Z,12.99
2023-03-12T01:32:55.195Z,13.09
2023-03-12T01:33:55.187Z,13.19
2023-03-12T01:34:55.192Z,12.99
2023-03-12T01:35:55.269Z,12.80
2023-03-12T01:36:55.192Z,12.90
2023-03-12T01:37:55.182Z,12.90
2023-03-12T01:38:55.190Z,12.89
2023-03-12T01:39:55.180Z,12.80
2023-03-12T01:40:55.187Z,12.90
2023-03-12T01:41:55.179Z,12.99
2023-03-12T01:42:55.192Z,12.99
2023-03-12T01:43:55.177Z,12.99
2023-03-12T01:44:55.184Z,12.90
2023-03-12T01:45:55.276Z,12.99
2023-03-12T01:46:55.224Z,12.99
2023-03-12T01:47:55.180Z,13.09
2023-03-12T01:48:55.183Z,12.99
2023-03-12T01:49:55.172Z,12.99
2023-03-12T01:50:55.179Z,12.99
2023-03-12T01:51:55.172Z,13.09
2023-03-12T01:52:55.182Z,13.09
2023-03-12T01:53:55.170Z,12.90
2023-03-12T01:54:55.175Z,12.90
2023-03-12T01:55:55.169Z,12.90
2023-03-12T01:56:55.179Z,12.99
2023-03-12T01:57:55.165Z,12.99
2023-03-12T01:58:55.173Z,12.90
2023-03-12T01:59:55.167Z,12.90
2023-03-12T02:00:55.231Z,12.90
2023-03-12T02:01:55.186Z,12.90
2023-03-12T02:02:55.169Z,12.80
2023-03-12T02:03:55.183Z,12.79
2023-03-12T02:04:55.170Z,12.99
2023-03-12T02:05:55.164Z,12.90
2023-03-12T02:06:55.170Z,12.90
2023-03-12T02:07:55.168Z,13.18
2023-03-12T02:08:55.167Z,12.90
2023-03-12T02:09:55.162Z,12.80
2023-03-12T02:10:55.165Z,13.09
2023-03-12T02:11:55.160Z,12.99
2023-03-12T02:12:55.164Z,12.99
2023-03-12T02:13:55.158Z,12.80
2023-03-12T02:14:55.164Z,12.99
2023-03-12T02:15:55.159Z,12.90
2023-03-12T02:16:55.168Z,13.09
2023-03-12T02:17:55.183Z,12.99
2023-03-12T02:18:55.162Z,12.70
2023-03-12T02:19:55.158Z,13.09
2023-03-12T02:20:55.162Z,13.09
2023-03-12T02:21:55.158Z,12.80
2023-03-12T02:22:55.161Z,12.90
2023-03-12T02:23:55.159Z,13.09
2023-03-12T02:24:55.160Z,12.80
2023-03-12T02:25:55.151Z,13.09
2023-03-12T02:26:55.162Z,12.99
2023-03-12T02:27:55.151Z,12.70
2023-03-12T02:28:55.160Z,13.09
2023-03-12T02:29:55.148Z,12.99
2023-03-12T02:30:55.157Z,12.99
2023-03-12T02:31:55.174Z,12.80
2023-03-12T02:32:55.206Z,13.19
2023-03-12T02:33:55.169Z,12.99
2023-03-12T02:34:55.155Z,12.99
2023-03-12T02:35:55.176Z,13.09
2023-03-12T02:36:55.158Z,12.99
2023-03-12T02:37:55.165Z,13.19
2023-03-12T02:38:55.151Z,13.09
2023-03-12T02:39:55.145Z,13.29
2023-03-12T02:40:55.150Z,13.09
2023-03-12T02:41:55.142Z,13.29
2023-03-12T02:42:55.151Z,13.29
2023-03-12T02:43:55.146Z,13.09
2023-03-12T02:44:55.152Z,13.19
2023-03-12T02:45:55.152Z,13.29
2023-03-12T02:46:55.170Z,13.09
2023-03-12T02:47:55.141Z,13.29
2023-03-12T02:48:55.153Z,13.19
2023-03-12T02:49:55.163Z,13.29
2023-03-12T02:50:55.149Z,13.38
2023-03-12T02:51:55.139Z,13.29
2023-03-12T02:52:55.147Z,13.38
2023-03-12T02:53:55.249Z,13.29
2023-03-12T02:54:55.145Z,13.19
2023-03-12T02:55:55.142Z,13.29
2023-03-12T02:56:55.162Z,13.29
2023-03-12T02:57:55.138Z,13.38
2023-03-12T02:58:55.151Z,13.19
2023-03-12T02:59:55.142Z,13.38
2023-03-12T03:00:55.258Z,13.19
2023-03-12T03:01:55.138Z,13.38
2023-03-12T03:02:55.141Z,13.19
2023-03-12T03:03:55.181Z,13.19
2023-03-12T03:04:55.140Z,13.19
2023-03-12T03:05:55.159Z,13.38
2023-03-12T03:06:55.139Z,13.19
2023-03-12T03:07:55.132Z,13.38
2023-03-12T03:08:55.140Z,13.38
2023-03-12T03:09:55.130Z,13.29
2023-03-12T03:10:55.153Z,13.38
2023-03-12T03:11:55.150Z,13.29
2023-03-12T03:12:55.135Z,13.19
2023-03-12T03:13:55.133Z,13.29
2023-03-12T03:14:55.137Z,13.19
2023-03-12T03:15:55.315Z,13.29
2023-03-12T03:16:55.134Z,13.29
2023-03-12T03:17:55.133Z,13.29
2023-03-12T03:18:55.135Z,13.29
2023-03-12T03:19:55.128Z,13.38
2023-03-12T03:20:55.135Z,13.29
2023-03-12T03:21:55.158Z,13.38
2023-03-12T03:22:55.135Z,13.09
2023-03-12T03:23:55.128Z,13.19
2023-03-12T03:24:55.135Z,13.19
2023-03-12T03:25:55.128Z,13.38
2023-03-12T03:26:55.138Z,13.19
2023-03-12T03:27:55.126Z,13.29
2023-03-12T03:28:55.147Z,13.09
2023-03-12T03:29:55.123Z,13.09
2023-03-12T03:30:55.154Z,13.09
2023-03-12T03:31:55.122Z,13.38
2023-03-12T03:32:55.134Z,13.19
2023-03-12T03:33:55.119Z,13.19
2023-03-12T03:34:55.134Z,13.29
2023-03-12T03:35:55.142Z,13.19
2023-03-12T03:36:55.116Z,13.29
2023-03-12T03:37:55.144Z,13.29
2023-03-12T03:38:55.114Z,13.19
2023-03-12T03:39:55.121Z,13.19
2023-03-12T03:40:55.112Z,13.19
2023-03-12T03:41:55.119Z,13.29
2023-03-12T03:42:55.111Z,13.29
2023-03-12T03:43:55.118Z,13.29
2023-03-12T03:44:55.114Z,13.28
2023-03-12T03:45:55.131Z,13.29
2023-03-12T03:46:55.110Z,13.29
2023-03-12T03:47:55.126Z,13.09
2023-03-12T03:48:55.108Z,13.29
2023-03-12T03:49:55.118Z,13.29
2023-03-12T03:50:55.107Z,13.29
2023-03-12T03:51:55.120Z,13.29
2023-03-12T03:52:55.105Z,13.19
2023-03-12T03:53:55.138Z,13.29
2023-03-12T03:54:55.105Z,13.29
2023-03-12T03:55:55.127Z,13.29
2023-03-12T03:56:55.102Z,13.29
2023-03-12T03:57:55.114Z,13.19
2023-03-12T03:58:55.103Z,13.29
2023-03-12T03:59:55.115Z,13.19
2023-03-12T04:00:55.100Z,13.09
2023-03-12T04:01:55.107Z,13.29
2023-03-12T04:02:55.136Z,13.29
2023-03-12T04:03:55.108Z,13.19
2023-03-12T04:04:55.101Z,12.99
2023-03-12T04:05:55.235Z,13.19
2023-03-12T04:06:55.109Z,13.09
2023-03-12T04:07:55.108Z,13.29
2023-03-12T04:08:55.099Z,13.29
2023-03-12T04:09:55.135Z,13.09
2023-03-12T04:10:55.098Z,12.99
2023-03-12T04:11:55.109Z,12.99
2023-03-12T04:12:55.096Z,12.99
2023-03-12T04:13:55.101Z,13.09
2023-03-12T04:14:55.091Z,12.99
2023-03-12T04:15:55.178Z,12.99
2023-03-12T04:16:55.095Z,13.19
2023-03-12T04:17:55.150Z,13.29
2023-03-12T04:18:55.093Z,13.29
2023-03-12T04:19:55.100Z,12.99
2023-03-12T04:20:55.091Z,12.99
2023-03-12T04:21:55.109Z,12.99
2023-03-12T04:22:55.101Z,13.29
2023-03-12T04:23:55.108Z,12.99
2023-03-12T04:24:55.088Z,13.19
2023-03-12T04:25:55.124Z,13.09
2023-03-12T04:26:55.087Z,12.99
2023-03-12T04:27:55.094Z,13.19
2023-03-12T04:28:55.086Z,13.09
2023-03-12T04:29:55.100Z,13.38
2023-03-12T04:30:55.135Z,13.19
2023-03-12T04:31:55.095Z,13.29
2023-03-12T04:32:55.149Z,12.99
2023-03-12T04:33:55.098Z,13.19
2023-03-12T04:34:55.091Z,13.19
2023-03-12T04:35:55.127Z,13.19
2023-03-12T04:36:55.082Z,13.09
2023-03-12T04:37:55.091Z,13.19
2023-03-12T04:38:55.082Z,13.18
2023-03-12T04:39:55.088Z,13.19
2023-03-12T04:40:55.084Z,13.19
2023-03-12T04:41:55.110Z,13.29
2023-03-12T04:42:55.082Z,13.18
2023-03-12T04:43:55.089Z,13.19
2023-03-12T04:44:55.082Z,13.29
2023-03-12T04:45:55.087Z,13.29
2023-03-12T04:46:55.169Z,13.29
2023-03-12T04:47:55.088Z,13.19
2023-03-12T04:48:55.079Z,13.19
2023-03-12T04:49:55.084Z,13.29
2023-03-12T04:50:55.082Z,13.29
2023-03-12T04:51:55.089Z,13.09
2023-03-12T04:52:55.076Z,13.19
2023-03-12T04:53:55.085Z,13.19
2023-03-12T04:54:55.096Z,13.19
2023-03-12T04:55:55.094Z,13.19
2023-03-12T04:56:55.076Z,13.09
2023-03-12T04:57:55.105Z,13.29
2023-03-12T04:58:55.082Z,13.18
2023-03-12T04:59:55.104Z,13.19
2023-03-12T05:00:55.075Z,13.19
2023-03-12T05:01:55.088Z,13.19
2023-03-12T05:02:55.138Z,13.18
2023-03-12T05:03:55.124Z,13.19
2023-03-12T05:04:55.083Z,13.29
2023-03-12T05:05:55.080Z,13.18
2023-03-12T05:06:55.074Z,13.19
2023-03-12T05:07:55.087Z,13.29
2023-03-12T05:08:55.073Z,13.29
2023-03-12T05:09:55.080Z,13.19
2023-03-12T05:10:55.074Z,13.19
2023-03-12T05:11:55.078Z,13.19
2023-03-12T05:12:55.073Z,13.29
2023-03-12T05:13:55.103Z,13.29
2023-03-12T05:14:55.076Z,13.19
2023-03-12T05:15:55.125Z,12.99
2023-03-12T05:16:55.070Z,13.19
2023-03-12T05:17:55.084Z,13.29
2023-03-12T05:18:55.071Z,13.38
2023-03-12T05:19:55.072Z,13.19
2023-03-12T05:20:55.063Z,12.99
2023-03-12T05:21:55.071Z,12.99
2023-03-12T05:22:55.062Z,13.29
2023-03-12T05:23:55.076Z,13.29
2023-03-12T05:24:55.061Z,13.29
2023-03-12T05:25:55.074Z,12.99
2023-03-12T05:26:55.059Z,13.19
2023-03-12T05:27:55.066Z,13.29
2023-03-12T05:28:55.058Z,13.19
2023-03-12T05:29:55.097Z,13.19
2023-03-12T05:30:55.057Z,13.38
2023-03-12T05:31:55.158Z,13.28
2023-03-12T05:32:55.210Z,13.29
2023-03-12T05:33:55.077Z,13.29
2023-03-12T05:34:55.057Z,13.18
2023-03-12T05:35:55.236Z,13.19
2023-03-12T05:36:55.062Z,13.18
2023-03-12T05:37:55.066Z,13.19
2023-03-12T05:38:55.056Z,13.29
2023-03-12T05:39:55.073Z,13.48
2023-03-12T05:40:55.053Z,13.57
2023-03-12T05:41:55.060Z,13.29
2023-03-12T05:42:55.053Z,13.29
2023-03-12T05:43:55.060Z,13.38
2023-03-12T05:44:55.052Z,13.38
2023-03-12T05:45:55.232Z,13.38
2023-03-12T05:46:56.644Z,13.37
2023-03-12T05:47:55.055Z,13.77
2023-03-12T05:48:55.048Z,13.77
2023-03-12T05:49:55.061Z,13.67
2023-03-12T05:50:55.046Z,13.48
2023-03-12T05:51:55.074Z,13.48
2023-03-12T05:52:55.045Z,13.47
2023-03-12T05:53:55.050Z,13.57
2023-03-12T05:54:55.052Z,13.48
2023-03-12T05:55:55.050Z,13.57
2023-03-12T05:56:55.041Z,13.67
2023-03-12T05:57:55.050Z,13.57
2023-03-12T05:58:55.039Z,13.57
2023-03-12T05:59:55.046Z,13.57
2023-03-12T06:00:55.039Z,13.57
2023-03-12T06:01:55.108Z,13.67
2023-03-12T06:02:55.226Z,13.67
2023-03-12T06:03:55.041Z,13.47
2023-03-12T06:04:55.032Z,13.57
2023-03-12T06:05:55.039Z,13.67
2023-03-12T06:06:55.029Z,13.57
2023-03-12T06:07:55.039Z,13.67
2023-03-12T06:08:55.033Z,13.67
2023-03-12T06:09:55.035Z,13.67
2023-03-12T06:10:55.036Z,13.57
2023-03-12T06:11:55.032Z,13.67
2023-03-12T06:12:55.026Z,13.67
2023-03-12T06:13:55.040Z,13.57
2023-03-12T06:14:55.030Z,13.77
2023-03-12T06:15:55.032Z,13.67
2023-03-12T06:16:55.132Z,13.57
2023-03-12T06:17:55.092Z,13.57
2023-03-12T06:18:55.026Z,13.57
2023-03-12T06:19:55.031Z,13.67
2023-03-12T06:20:55.021Z,13.57
2023-03-12T06:21:55.032Z,13.57
2023-03-12T06:22:55.020Z,13.67
2023-03-12T06:23:55.033Z,13.67
2023-03-12T06:24:55.018Z,13.57
2023-03-12T06:25:55.025Z,13.67
2023-03-12T06:26:55.033Z,13.57
2023-03-12T06:27:55.026Z,13.57
2023-03-12T06:28:55.019Z,13.77
2023-03-12T06:29:55.025Z,13.57
2023-03-12T06:30:55.019Z,13.57
2023-03-12T06:31:55.077Z,13.86
2023-03-12T06:32:55.129Z,13.57
2023-03-12T06:33:55.045Z,13.57
2023-03-12T06:34:55.025Z,13.67
2023-03-12T06:35:55.069Z,13.86
2023-03-12T06:36:55.012Z,13.87
2023-03-12T06:37:55.017Z,13.67
2023-03-12T06:38:57.100Z,13.57
2023-03-12T06:39:55.018Z,13.48
2023-03-12T06:40:55.020Z,13.57
2023-03-12T06:41:55.014Z,13.67
2023-03-12T06:42:55.010Z,13.67
2023-03-12T06:43:55.016Z,13.77
2023-03-12T06:44:55.006Z,13.67
2023-03-12T06:45:55.063Z,13.67
2023-03-12T06:46:55.009Z,13.57
2023-03-12T06:47:55.017Z,13.67
2023-03-12T06:48:55.004Z,13.87
2023-03-12T06:49:55.040Z,13.67
2023-03-12T06:50:55.004Z,13.76
2023-03-12T06:51:55.011Z,13.47
2023-03-12T06:52:55.001Z,13.77
2023-03-12T06:53:55.009Z,13.67
2023-03-12T06:54:55.027Z,13.76
2023-03-12T06:55:55.008Z,13.67
2023-03-12T06:56:55.003Z,13.67
2023-03-12T06:57:55.026Z,13.57
2023-03-12T06:58:55.023Z,13.67
2023-03-12T06:59:55.010Z,13.57
2023-03-12T07:00:55.008Z,13.48
2023-03-12T07:01:55.059Z,13.77
2023-03-12T07:02:54.997Z,13.77
2023-03-12T07:03:55.004Z,13.57
2023-03-12T07:04:55.027Z,13.67
2023-03-12T07:05:55.035Z,13.67
2023-03-12T07:06:55.000Z,13.67
2023-03-12T07:07:55.005Z,13.77
2023-03-12T07:08:55.008Z,13.77
2023-03-12T07:09:55.008Z,13.67
2023-03-12T07:10:54.997Z,13.48
2023-03-12T07:11:55.009Z,13.76
2023-03-12T07:12:55.024Z,13.67
2023-03-12T07:13:55.017Z,13.67
2023-03-12T07:14:55.000Z,13.77
2023-03-12T07:15:55.044Z,13.77
2023-03-12T07:16:54.994Z,13.86
2023-03-12T07:17:55.002Z,13.77
2023-03-12T07:18:55.000Z,13.87
2023-03-12T07:19:55.001Z,13.87
2023-03-12T07:20:54.992Z,13.67
2023-03-12T07:21:55.026Z,13.87
2023-03-12T07:22:54.997Z,13.87
2023-03-12T07:23:55.005Z,13.87
2023-03-12T07:24:54.992Z,13.87
2023-03-12T07:25:54.999Z,13.87
2023-03-12T07:26:54.992Z,13.67
2023-03-12T07:27:54.998Z,13.77
2023-03-12T07:28:54.997Z,13.76
2023-03-12T07:29:54.997Z,13.77
2023-03-12T07:30:54.994Z,13.67
2023-03-12T07:31:54.998Z,13.77
2023-03-12T07:32:55.041Z,13.86
2023-03-12T07:33:55.199Z,13.86
2023-03-12T07:34:54.988Z,13.96
2023-03-12T07:35:55.106Z,13.87
2023-03-12T07:36:55.145Z,13.77
2023-03-12T07:37:55.034Z,13.96
2023-03-12T07:38:54.984Z,13.96
2023-03-12T07:39:55.042Z,13.87
2023-03-12T07:40:55.018Z,13.77
2023-03-12T07:41:55.058Z,13.87
2023-03-12T07:42:54.983Z,13.87
2023-03-12T07:43:55.028Z,13.77
2023-03-12T07:44:54.983Z,13.77
2023-03-12T07:45:54.983Z,13.77
2023-03-12T07:46:55.158Z,13.86
2023-03-12T07:47:55.063Z,13.96
2023-03-12T07:48:55.277Z,13.96
2023-03-12T07:49:55.018Z,13.87
2023-03-12T07:50:54.973Z,13.96
2023-03-12T07:51:55.038Z,13.77
2023-03-12T07:52:54.978Z,13.77
2023-03-12T07:53:54.999Z,13.87
2023-03-12T07:54:55.019Z,13.77
2023-03-12T07:55:55.145Z,13.87
2023-03-12T07:56:55.086Z,13.77
2023-03-12T07:57:55.029Z,13.77
2023-03-12T07:58:55.468Z,13.67
2023-03-12T07:59:55.005Z,13.77
2023-03-12T08:00:54.986Z,13.96
2023-03-12T08:01:55.056Z,13.87
2023-03-12T08:02:55.202Z,13.77
2023-03-12T08:03:55.047Z,13.96
2023-03-12T08:04:55.059Z,13.77
2023-03-12T08:05:55.002Z,14.06
2023-03-12T08:06:54.969Z,13.87
2023-03-12T08:07:54.967Z,14.06
2023-03-12T08:08:54.995Z,13.96
2023-03-12T08:09:55.017Z,13.96
2023-03-12T08:10:54.968Z,13.87
2023-03-12T08:11:54.980Z,13.96
2023-03-12T08:12:55.039Z,14.06
2023-03-12T08:13:54.960Z,13.96
2023-03-12T08:14:55.013Z,14.16
2023-03-12T08:15:55.023Z,14.25
2023-03-12T08:16:54.966Z,14.16
2023-03-12T08:17:54.960Z,14.06
2023-03-12T08:18:54.962Z,14.06
2023-03-12T08:19:54.955Z,14.06
2023-03-12T08:20:54.992Z,14.16
2023-03-12T08:21:54.953Z,14.06
2023-03-12T08:22:54.964Z,13.96
2023-03-12T08:23:54.955Z,14.06
2023-03-12T08:24:54.968Z,14.06
2023-03-12T08:25:55.007Z,14.16
2023-03-12T08:26:54.956Z,14.06
2023-03-12T08:27:54.950Z,14.06
2023-03-12T08:28:54.955Z,14.16
2023-03-12T08:29:54.950Z,14.16
2023-03-12T08:30:54.953Z,13.96
2023-03-12T08:32:04.600Z,13.96
2023-03-12T08:32:55.006Z,14.06
2023-03-12T08:33:54.957Z,13.96
2023-03-12T08:34:54.959Z,14.06
2023-03-12T08:35:55.112Z,14.25
2023-03-12T08:36:54.955Z,14.06
2023-03-12T08:37:54.943Z,14.25
2023-03-12T08:38:54.954Z,14.16
2023-03-12T08:39:54.944Z,14.25
2023-03-12T08:40:54.952Z,14.16
2023-03-12T08:41:54.971Z,14.35
2023-03-12T08:42:54.953Z,14.16
2023-03-12T08:43:54.946Z,14.06
2023-03-12T08:44:54.950Z,14.16
2023-03-12T08:45:54.973Z,14.16
2023-03-12T08:46:54.950Z,14.06
2023-03-12T08:47:54.949Z,14.16
2023-03-12T08:48:54.948Z,14.16
2023-03-12T08:49:54.954Z,14.06
2023-03-12T08:50:54.951Z,14.06
2023-03-12T08:51:54.959Z,14.06
2023-03-12T08:52:54.947Z,14.16
2023-03-12T08:53:54.943Z,14.06
2023-03-12T08:54:54.948Z,14.16
2023-03-12T08:55:54.955Z,14.06
2023-03-12T08:56:54.955Z,14.06
2023-03-12T08:57:54.962Z,14.16
2023-03-12T08:58:54.949Z,13.96
2023-03-12T08:59:54.941Z,14.15
2023-03-12T09:00:54.945Z,14.25
2023-03-12T09:01:54.938Z,14.25
2023-03-12T09:02:55.011Z,14.16
2023-03-12T09:03:54.938Z,14.06
2023-03-12T09:04:54.942Z,14.06
2023-03-12T09:05:54.947Z,14.06
2023-03-12T09:06:54.946Z,14.16
2023-03-12T09:07:54.936Z,14.06
2023-03-12T09:08:54.944Z,13.96
2023-03-12T09:09:54.932Z,14.06
2023-03-12T09:10:54.941Z,14.06
2023-03-12T09:11:54.937Z,14.06
2023-03-12T09:12:54.937Z,14.06
2023-03-12T09:14:22.450Z,14.06
2023-03-12T09:15:04.181Z,14.06
2023-03-12T09:15:54.933Z,14.06
2023-03-12T09:16:55.013Z,14.06
2023-03-12T09:17:54.929Z,14.06
2023-03-12T09:18:54.941Z,14.45
2023-03-12T09:19:54.928Z,14.06
2023-03-12T09:20:54.934Z,13.96
2023-03-12T09:21:54.938Z,14.45
2023-03-12T09:22:54.936Z,14.45
2023-03-12T09:23:54.927Z,14.25
2023-03-12T09:24:54.948Z,14.35
2023-03-12T09:25:54.921Z,14.45
2023-03-12T09:26:54.928Z,14.35
2023-03-12T09:27:54.922Z,14.35
2023-03-12T09:28:54.928Z,14.25
2023-03-12T09:30:00.484Z,14.25
2023-03-12T09:30:55.036Z,14.35
2023-03-12T09:31:54.916Z,14.35
2023-03-12T09:32:55.000Z,14.35
2023-03-12T09:33:54.916Z,14.35
2023-03-12T09:34:54.926Z,14.35
2023-03-12T09:35:54.923Z,14.35
2023-03-12T09:36:54.925Z,14.35
2023-03-12T09:37:54.923Z,14.35
2023-03-12T09:38:54.919Z,14.35
2023-03-12T09:39:54.909Z,14.25
2023-03-12T09:40:54.916Z,14.35
2023-03-12T09:41:54.909Z,14.16
2023-03-12T09:42:54.927Z,14.35
2023-03-12T09:43:54.919Z,14.35
2023-03-12T09:44:54.937Z,14.25
2023-03-12T09:45:54.978Z,14.25
2023-03-12T09:46:54.958Z,14.25
2023-03-12T09:47:54.907Z,14.16
2023-03-12T09:48:54.911Z,14.45
2023-03-12T09:49:54.903Z,14.16
2023-03-12T09:50:54.912Z,14.54
2023-03-12T09:51:54.901Z,14.54
2023-03-12T09:52:54.910Z,14.64
2023-03-12T09:53:54.901Z,14.54
2023-03-12T09:54:54.911Z,14.54
2023-03-12T09:55:54.917Z,14.64
2023-03-12T09:56:54.919Z,14.74
2023-03-12T09:57:54.913Z,14.74
2023-03-12T09:58:54.908Z,14.74
2023-03-12T09:59:54.901Z,14.74
2023-03-12T10:00:54.906Z,14.74
2023-03-12T10:01:54.922Z,14.64
2023-03-12T10:02:55.017Z,14.64
2023-03-12T10:03:54.913Z,14.74
2023-03-12T10:04:59.836Z,14.64
2023-03-12T10:05:54.905Z,14.74
2023-03-12T10:06:54.906Z,14.74
2023-03-12T10:07:54.900Z,14.74
2023-03-12T10:08:54.906Z,15.03
2023-03-12T10:09:54.898Z,15.03
2023-03-12T10:10:54.917Z,14.84
2023-03-12T10:11:54.897Z,14.94
2023-03-12T10:12:54.902Z,14.84
2023-03-12T10:13:54.896Z,15.03
2023-03-12T10:14:54.903Z,14.74
2023-03-12T10:15:54.955Z,14.94
2023-03-12T10:16:54.905Z,15.12
2023-03-12T10:17:55.082Z,15.03
2023-03-12T10:18:55.020Z,14.84
2023-03-12T10:19:54.894Z,14.74
2023-03-12T10:20:54.902Z,14.84
2023-03-12T10:21:54.892Z,14.84
2023-03-12T10:22:54.918Z,14.94
2023-03-12T10:23:54.892Z,14.94
2023-03-12T10:24:54.898Z,14.94
2023-03-12T10:25:54.904Z,14.94
2023-03-12T10:26:54.895Z,14.94
2023-03-12T10:27:54.887Z,14.84
2023-03-12T10:28:54.895Z,15.12
2023-03-12T10:29:54.887Z,15.12
2023-03-12T10:30:54.987Z,15.03
2023-03-12T10:31:54.887Z,15.03
2023-03-12T10:32:54.947Z,15.03
2023-03-12T10:33:54.913Z,15.12
2023-03-12T10:34:54.895Z,15.03
2023-03-12T10:35:54.909Z,15.12
2023-03-12T10:36:54.890Z,15.03
2023-03-12T10:37:54.882Z,15.03
2023-03-12T10:38:54.890Z,14.84
2023-03-12T10:39:54.881Z,15.22
2023-03-12T10:40:54.888Z,15.32
2023-03-12T10:41:54.880Z,15.32
2023-03-12T10:42:54.887Z,15.32
2023-03-12T10:43:54.880Z,15.32
2023-03-12T10:44:54.886Z,15.22
2023-03-12T10:45:54.878Z,15.22
2023-03-12T10:46:54.884Z,15.22
2023-03-12T10:47:54.884Z,15.22
2023-03-12T10:48:54.884Z,15.32
2023-03-12T10:49:54.900Z,15.32
2023-03-12T10:50:54.883Z,15.12
2023-03-12T10:51:54.876Z,15.32
2023-03-12T10:52:54.886Z,15.32
2023-03-12T10:53:54.873Z,15.03
2023-03-12T10:54:54.879Z,15.12
2023-03-12T10:55:54.875Z,15.12
2023-03-12T10:56:54.884Z,15.03
2023-03-12T10:57:54.869Z,15.12
2023-03-12T10:58:54.877Z,14.94
2023-03-12T10:59:54.870Z,15.03
2023-03-12T11:00:54.876Z,15.03
2023-03-12T11:01:54.911Z,15.12
2023-03-12T11:02:54.876Z,14.94
2023-03-12T11:03:54.870Z,14.94
2023-03-12T11:04:54.875Z,14.94
2023-03-12T11:05:54.973Z,15.32
2023-03-12T11:06:54.874Z,14.94
2023-03-12T11:07:54.870Z,14.94
2023-03-12T11:09:00.606Z,15.42
2023-03-12T11:09:54.868Z,15.22
2023-03-12T11:10:54.873Z,15.22
2023-03-12T11:11:54.867Z,15.32
2023-03-12T11:12:54.893Z,15.32
2023-03-12T11:13:54.864Z,15.32
2023-03-12T11:14:54.876Z,15.22
2023-03-12T11:15:54.889Z,15.22
2023-03-12T11:16:54.868Z,15.32
2023-03-12T11:17:54.869Z,15.12
2023-03-12T11:18:54.871Z,15.32
2023-03-12T11:19:54.866Z,15.32
2023-03-12T11:20:54.867Z,15.42
2023-03-12T11:21:54.883Z,15.03
2023-03-12T11:22:54.866Z,15.03
2023-03-12T11:23:54.858Z,15.12
2023-03-12T11:24:54.865Z,15.12
2023-03-12T11:25:54.867Z,15.03
2023-03-12T11:26:54.864Z,15.03
2023-03-12T11:27:54.866Z,15.42
2023-03-12T11:28:54.866Z,15.52
2023-03-12T11:29:54.855Z,15.42
2023-03-12T11:30:54.863Z,15.22
2023-03-12T11:31:54.868Z,15.52
2023-03-12T11:32:54.872Z,15.52
2023-03-12T11:33:54.853Z,15.52
2023-03-12T11:34:54.860Z,15.52
2023-03-12T11:35:54.873Z,15.61
2023-03-12T11:36:54.860Z,15.61
2023-03-12T11:37:54.873Z,15.71
2023-03-12T11:38:54.857Z,15.52
2023-03-12T11:39:54.849Z,15.52
2023-03-12T11:40:54.858Z,15.61
2023-03-12T11:41:54.858Z,15.61
2023-03-12T11:42:54.858Z,15.71
2023-03-12T11:43:54.849Z,15.61
2023-03-12T11:44:54.859Z,15.61
2023-03-12T11:45:54.861Z,15.61
2023-03-12T11:46:54.882Z,15.61
2023-03-12T11:47:54.948Z,15.61
2023-03-12T11:48:54.850Z,15.81
2023-03-12T11:49:54.847Z,15.81
2023-03-12T11:50:54.854Z,15.91
2023-03-12T11:51:54.859Z,15.91
2023-03-12T11:52:54.852Z,15.81
2023-03-12T11:53:54.871Z,15.81
2023-03-12T11:54:54.865Z,15.81
2023-03-12T11:55:54.850Z,15.61
2023-03-12T11:56:54.850Z,15.71
2023-03-12T11:57:54.848Z,15.91
2023-03-12T11:58:54.850Z,15.91
2023-03-12T11:59:54.850Z,15.91
2023-03-12T12:00:54.852Z,15.91
2023-03-12T12:01:54.878Z,16.00
2023-03-12T12:02:54.892Z,15.81
2023-03-12T12:03:54.838Z,15.81
2023-03-12T12:04:54.846Z,15.91
2023-03-12T12:05:54.838Z,15.91
2023-03-12T12:06:54.847Z,16.29
2023-03-12T12:07:54.837Z,15.71
2023-03-12T12:08:54.836Z,16.19
2023-03-12T12:09:54.867Z,16.29
2023-03-12T12:10:54.837Z,16.29
2023-03-12T12:11:54.846Z,16.19
2023-03-12T12:12:54.834Z,16.19
2023-03-12T12:13:54.841Z,16.19
2023-03-12T12:14:54.837Z,16.19
2023-03-12T12:15:54.843Z,16.09
2023-03-12T12:16:54.835Z,16.09
2023-03-12T12:17:54.841Z,16.00
2023-03-12T12:18:54.836Z,16.00
2023-03-12T12:19:54.841Z,16.00
2023-03-12T12:20:54.831Z,15.91
2023-03-12T12:21:54.842Z,16.09
2023-03-12T12:22:54.830Z,16.09
2023-03-12T12:23:54.838Z,16.19
2023-03-12T12:24:54.832Z,16.19
2023-03-12T12:25:54.857Z,16.19
2023-03-12T12:26:54.832Z,16.39
2023-03-12T12:27:54.837Z,16.39
2023-03-12T12:28:54.829Z,16.09
2023-03-12T12:29:54.835Z,16.19
2023-03-12T12:30:54.828Z,16.29
2023-03-12T12:31:54.877Z,16.19
2023-03-12T12:32:54.877Z,16.19
2023-03-12T12:33:54.834Z,16.29
2023-03-12T12:34:54.831Z,16.29
2023-03-12T12:35:54.919Z,16.39
2023-03-12T12:36:54.975Z,16.29
2023-03-12T12:37:54.830Z,16.39
2023-03-12T12:38:54.825Z,16.58
2023-03-12T12:39:54.834Z,16.49
2023-03-12T12:40:54.823Z,16.58
2023-03-12T12:41:54.863Z,16.58
2023-03-12T12:42:54.822Z,16.49
2023-03-12T12:43:54.830Z,16.49
2023-03-12T12:44:54.821Z,16.49
2023-03-12T12:45:54.858Z,16.78
2023-03-12T12:46:54.828Z,16.68
2023-03-12T12:47:54.828Z,16.58
2023-03-12T12:48:54.819Z,16.68
2023-03-12T12:49:54.827Z,16.68
2023-03-12T12:50:54.817Z,16.68
2023-03-12T12:51:54.829Z,16.58
2023-03-12T12:52:54.816Z,16.78